Time;durP1;ratioP1;P1;durP2;ratioP2;P2;SDS_P1;SDS_P2;PMS_P1;PMS_P2;Temp;Humidity;BMP_temperature;BMP_pressure;BME280_temperature;BME280_humidity;BME280_pressure;Samples;Min_cycle;Max_cycle;Signal;HPM_P1;HPM_P2
2023/12/20 00:01:47;;;;;;;17.63;2.78;;;6.40;99.90;;;;;;5072211;28;20476;-74
2023/12/20 00:04:12;;;;;;;15.05;2.85;;;6.30;99.90;;;;;;5072416;28;20044;-73
2023/12/20 00:06:38;;;;;;;;;;;6.30;99.90;;;;;;5073562;28;20072;-74
2023/12/20 00:09:03;;;;;;;15.35;2.42;;;6.40;99.90;;;;;;5071727;28;19920;-74
2023/12/20 00:11:29;;;;;;;14.30;2.90;;;6.20;99.90;;;;;;5073076;28;20045;-74
2023/12/20 00:13:54;;;;;;;;;;;6.20;99.90;;;;;;5072886;28;20036;-74
2023/12/20 00:16:20;;;;;;;16.38;3.08;;;6.20;99.90;;;;;;5071588;28;20398;-73
2023/12/20 00:18:46;;;;;;;19.38;3.42;;;6.20;99.90;;;;;;5072926;28;20496;-74
2023/12/20 00:21:11;;;;;;;16.02;2.88;;;6.30;99.90;;;;;;5071504;28;20044;-73
2023/12/20 00:23:37;;;;;;;11.23;2.53;;;6.40;99.90;;;;;;5072547;28;20048;-73
2023/12/20 00:26:03;;;;;;;;;;;6.50;99.90;;;;;;5072231;28;20488;-73
2023/12/20 00:28:28;;;;;;;11.20;2.38;;;6.50;99.90;;;;;;5071876;28;19967;-73
2023/12/20 00:30:54;;;;;;;;;;;6.50;99.90;;;;;;5072775;28;20476;-73
2023/12/20 00:33:19;;;;;;;14.75;2.67;;;6.50;99.90;;;;;;5072076;28;19917;-73
2023/12/20 00:35:45;;;;;;;17.35;3.95;;;6.60;99.90;;;;;;5071450;28;20051;-73
2023/12/20 00:38:11;;;;;;;14.73;3.55;;;6.80;99.90;;;;;;5072070;28;20127;-73
2023/12/20 00:40:36;;;;;;;;;;;6.70;99.90;;;;;;5072434;28;20057;-73
2023/12/20 00:43:02;;;;;;;21.35;3.30;;;6.60;99.90;;;;;;5071136;28;19966;-73
2023/12/20 00:45:28;;;;;;;15.13;2.90;;;6.60;99.90;;;;;;5072350;28;20074;-73
2023/12/20 00:47:54;;;;;;;16.20;3.65;;;6.60;99.90;;;;;;5071535;28;20060;-73
2023/12/20 00:50:21;;;;;;;17.98;3.47;;;6.60;99.90;;;;;;5071259;28;20610;-73
2023/12/20 00:52:47;;;;;;;19.13;3.30;;;6.60;99.90;;;;;;5071884;28;20060;-73
2023/12/20 00:55:13;;;;;;;14.35;3.17;;;6.70;99.90;;;;;;5071832;28;20055;-73
2023/12/20 00:57:39;;;;;;;20.80;3.40;;;6.90;99.90;;;;;;5071368;28;20044;-73
2023/12/20 01:00:05;;;;;;;19.02;3.38;;;6.70;99.90;;;;;;5071817;28;20048;-73
2023/12/20 01:02:31;;;;;;;17.73;3.72;;;6.70;99.90;;;;;;5071464;28;20101;-73
2023/12/20 01:04:56;;;;;;;16.52;3.20;;;6.80;99.90;;;;;;5071077;28;20037;-73
2023/12/20 01:07:22;;;;;;;29.13;3.55;;;7.00;99.90;;;;;;5071719;28;20052;-73
2023/12/20 01:09:48;;;;;;;20.65;3.08;;;6.80;99.90;;;;;;5071564;28;20518;-73
2023/12/20 01:12:13;;;;;;;18.27;3.10;;;6.70;99.90;;;;;;5070915;28;20396;-73
2023/12/20 01:14:39;;;;;;;14.93;3.10;;;6.60;99.90;;;;;;5071603;28;20036;-73
2023/12/20 01:17:05;;;;;;;19.08;3.65;;;6.70;99.90;;;;;;5071557;28;20457;-74
2023/12/20 01:19:30;;;;;;;15.52;3.65;;;7.00;99.90;;;;;;5070778;28;20071;-73
2023/12/20 01:21:56;;;;;;;18.50;3.33;;;6.70;99.90;;;;;;5071301;28;20123;-74
2023/12/20 01:24:22;;;;;;;17.92;2.90;;;6.70;99.90;;;;;;5071888;28;20049;-73
2023/12/20 01:26:47;;;;;;;;;;;6.80;99.90;;;;;;5071313;28;20036;-73
2023/12/20 01:29:14;;;;;;;16.85;3.20;;;6.90;99.90;;;;;;5071087;28;20348;-73
2023/12/20 01:31:42;;;;;;;20.35;3.88;;;6.90;99.90;;;;;;5070973;28;20040;-73
2023/12/20 01:34:08;;;;;;;16.15;3.80;;;7.00;99.90;;;;;;5071144;28;20040;-73
2023/12/20 01:36:33;;;;;;;20.10;3.25;;;7.00;99.90;;;;;;5071387;28;20102;-73
2023/12/20 01:38:59;;;;;;;21.73;3.33;;;7.00;99.90;;;;;;5069985;28;20075;-74
2023/12/20 01:41:24;;;;;;;22.33;3.72;;;7.00;99.90;;;;;;5071110;28;20439;-73
2023/12/20 01:43:50;;;;;;;17.13;3.20;;;7.00;99.90;;;;;;5071340;28;20074;-73
2023/12/20 01:46:16;;;;;;;;;;;7.00;99.90;;;;;;5070842;28;20067;-73
2023/12/20 01:48:42;;;;;;;15.50;3.63;;;7.20;99.90;;;;;;5072759;28;19925;-73
2023/12/20 01:51:08;;;;;;;21.65;3.80;;;7.00;99.90;;;;;;5071264;28;20131;-73
2023/12/20 01:53:34;;;;;;;;;;;7.00;99.90;;;;;;5070709;28;20048;-73
2023/12/20 01:56:00;;;;;;;20.73;4.03;;;7.60;99.90;;;;;;5071121;28;19920;-73
2023/12/20 01:58:26;;;;;;;18.92;3.25;;;7.00;99.90;;;;;;5073743;28;20086;-73
2023/12/20 02:00:52;;;;;;;21.17;3.22;;;7.00;99.90;;;;;;5074811;28;20127;-73
2023/12/20 02:03:18;;;;;;;17.70;3.50;;;7.10;99.90;;;;;;5074320;28;20187;-73
2023/12/20 02:05:45;;;;;;;20.10;4.13;;;7.40;99.90;;;;;;5074732;28;20075;-73
2023/12/20 02:08:11;;;;;;;21.35;3.47;;;7.10;99.90;;;;;;5074361;28;20131;-73
2023/12/20 02:10:37;;;;;;;23.63;3.65;;;7.00;99.90;;;;;;5074973;28;20127;-74
2023/12/20 02:13:04;;;;;;;;;;;7.10;99.90;;;;;;5076350;28;20400;-73
2023/12/20 02:15:29;;;;;;;20.48;3.17;;;7.10;99.90;;;;;;5075257;28;19942;-73
2023/12/20 02:17:55;;;;;;;19.77;3.65;;;7.10;99.90;;;;;;5074387;28;20036;-73
2023/12/20 02:20:21;;;;;;;23.52;4.18;;;7.00;99.90;;;;;;5074819;28;20056;-73
2023/12/20 02:22:46;;;;;;;20.33;3.97;;;7.00;99.90;;;;;;5075085;28;20040;-73
2023/12/20 02:25:12;;;;;;;19.55;3.63;;;7.00;99.90;;;;;;5074165;28;20047;-73
2023/12/20 02:27:44;;;;;;;17.80;3.10;;;7.10;99.90;;;;;;5074962;28;20052;-73
2023/12/20 02:30:14;;;;;;;17.20;3.85;;;7.30;99.90;;;;;;5074724;28;20036;-73
2023/12/20 02:32:39;;;;;;;16.13;3.70;;;7.10;99.90;;;;;;5074107;28;20051;-74
2023/12/20 02:35:08;;;;;;;25.52;4.72;;;7.10;99.90;;;;;;5073289;28;20048;-73
2023/12/20 02:37:34;;;;;;;20.52;3.50;;;7.00;99.90;;;;;;5074728;28;20041;-73
2023/12/20 02:39:59;;;;;;;21.52;3.80;;;7.00;99.90;;;;;;5074173;28;20098;-73
2023/12/20 02:42:25;;;;;;;23.15;4.18;;;7.10;99.90;;;;;;5073358;28;20121;-74
2023/12/20 02:44:51;;;;;;;17.52;3.78;;;7.10;99.90;;;;;;5074083;28;20042;-73
2023/12/20 02:47:16;;;;;;;17.65;3.22;;;7.90;99.90;;;;;;5073801;28;20075;-73
2023/12/20 02:49:42;;;;;;;17.52;3.42;;;7.40;99.90;;;;;;5073875;28;20048;-73
2023/12/20 02:52:08;;;;;;;24.67;4.13;;;7.10;99.90;;;;;;5074057;28;20048;-73
2023/12/20 02:54:33;;;;;;;21.10;3.92;;;7.60;99.90;;;;;;5073812;28;20089;-73
2023/12/20 02:56:59;;;;;;;24.80;3.90;;;7.00;99.90;;;;;;5073285;28;20136;-73
2023/12/20 02:59:24;;;;;;;23.17;3.63;;;7.00;99.90;;;;;;5074041;28;20079;-73
2023/12/20 03:01:50;;;;;;;17.83;3.33;;;7.00;99.90;;;;;;5073365;28;20127;-74
2023/12/20 03:04:15;;;;;;;15.02;3.17;;;7.10;99.90;;;;;;5073158;28;20044;-74
2023/12/20 03:06:41;;;;;;;20.05;3.50;;;7.10;99.90;;;;;;5075285;28;20098;-73
2023/12/20 03:09:07;;;;;;;17.85;3.67;;;7.20;99.90;;;;;;5072957;28;20609;-74
2023/12/20 03:11:32;;;;;;;;;;;7.20;99.90;;;;;;5072686;28;20040;-74
2023/12/20 03:13:58;;;;;;;22.70;4.22;;;7.20;99.90;;;;;;5072989;28;19920;-73
2023/12/20 03:16:24;;;;;;;16.42;3.53;;;7.20;99.90;;;;;;5073272;28;20476;-74
2023/12/20 03:18:50;;;;;;;21.48;3.55;;;7.20;99.90;;;;;;5073188;28;20179;-74
2023/12/20 03:21:15;;;;;;;;;;;7.30;99.90;;;;;;5073825;28;20048;-74
2023/12/20 03:23:41;;;;;;;15.88;3.75;;;7.30;99.90;;;;;;5074045;28;19943;-73
2023/12/20 03:26:07;;;;;;;21.52;3.53;;;7.30;99.90;;;;;;5072778;28;20492;-74
2023/12/20 03:28:33;;;;;;;20.25;3.80;;;7.30;99.90;;;;;;5073474;28;20495;-74
2023/12/20 03:30:59;;;;;;;21.75;4.10;;;7.30;99.90;;;;;;5073093;28;20488;-73
2023/12/20 03:33:25;;;;;;;16.15;3.22;;;7.30;99.90;;;;;;5073428;28;20127;-73
2023/12/20 03:35:50;;;;;;;17.42;2.92;;;7.30;99.90;;;;;;5073300;28;20494;-73
2023/12/20 03:38:16;;;;;;;;;;;7.30;99.90;;;;;;5074083;28;20136;-73
2023/12/20 03:40:42;;;;;;;15.23;3.53;;;7.50;99.90;;;;;;5074283;28;19920;-73
2023/12/20 03:43:07;;;;;;;21.02;3.25;;;7.30;99.90;;;;;;5073072;28;20052;-73
2023/12/20 03:45:33;;;;;;;15.82;2.92;;;7.30;99.90;;;;;;5072650;28;20110;-73
2023/12/20 03:47:59;;;;;;;14.20;2.90;;;7.30;99.90;;;;;;5073096;28;20132;-73
2023/12/20 03:50:24;;;;;;;;;;;7.70;99.90;;;;;;5073700;28;20040;-73
2023/12/20 03:52:50;;;;;;;16.67;3.60;;;7.30;99.90;;;;;;5072373;28;19928;-73
2023/12/20 03:55:16;;;;;;;20.55;3.88;;;7.30;99.90;;;;;;5072191;28;20047;-73
2023/12/20 03:57:41;;;;;;;;;;;7.30;99.90;;;;;;5073656;28;20185;-73
2023/12/20 04:00:11;;;;;;;23.05;4.22;;;7.40;99.90;;;;;;5072302;28;19927;-73
2023/12/20 04:02:42;;;;;;;17.45;3.58;;;7.40;99.90;;;;;;5073046;28;20036;-73
2023/12/20 04:05:09;;;;;;;18.55;3.78;;;7.40;99.90;;;;;;5072804;28;20036;-73
2023/12/20 04:07:38;;;;;;;26.55;4.53;;;7.30;99.90;;;;;;5072269;28;20064;-73
2023/12/20 04:10:04;;;;;;;17.75;3.65;;;7.30;99.90;;;;;;5071766;28;20484;-73
2023/12/20 04:12:30;;;;;;;23.42;3.67;;;7.40;99.90;;;;;;5072752;28;20117;-73
2023/12/20 04:14:59;;;;;;;23.75;3.47;;;7.40;99.90;;;;;;5072025;28;20044;-73
2023/12/20 04:17:24;;;;;;;23.70;3.30;;;7.40;99.90;;;;;;5073980;28;20076;-74
2023/12/20 04:19:51;;;;;;;21.23;3.70;;;7.40;99.90;;;;;;5072334;28;20114;-72
2023/12/20 04:22:20;;;;;;;22.42;4.47;;;7.40;99.90;;;;;;5070304;28;20055;-73
2023/12/20 04:24:45;;;;;;;18.40;3.30;;;7.40;99.90;;;;;;5072399;28;20048;-73
2023/12/20 04:27:14;;;;;;;18.10;3.53;;;7.40;99.90;;;;;;5073648;28;20068;-73
2023/12/20 04:29:39;;;;;;;21.95;4.07;;;7.50;99.90;;;;;;5071503;28;20067;-73
2023/12/20 04:32:05;;;;;;;21.92;3.30;;;7.50;99.90;;;;;;5071919;28;20505;-73
2023/12/20 04:34:31;;;;;;;17.05;3.47;;;7.50;99.90;;;;;;5071874;28;20052;-73
2023/12/20 04:36:56;;;;;;;14.65;3.45;;;7.50;99.90;;;;;;5072162;28;20132;-73
2023/12/20 04:39:22;;;;;;;20.40;3.65;;;7.50;99.90;;;;;;5072313;28;20052;-74
2023/12/20 04:41:48;;;;;;;;;;;7.60;99.90;;;;;;5071623;28;20056;-74
2023/12/20 04:44:13;;;;;;;19.48;3.55;;;7.70;99.90;;;;;;5072020;28;19920;-74
2023/12/20 04:46:39;;;;;;;20.33;4.13;;;7.80;99.90;;;;;;5072146;28;20051;-74
2023/12/20 04:49:05;;;;;;;18.90;3.45;;;7.60;99.90;;;;;;5070839;28;20416;-74
2023/12/20 04:51:33;;;;;;;18.25;3.70;;;7.60;99.90;;;;;;5071982;28;20408;-73
2023/12/20 04:53:59;;;;;;;24.17;3.90;;;7.80;99.90;;;;;;5071847;28;20404;-73
2023/12/20 04:56:25;;;;;;;16.63;4.18;;;7.60;99.90;;;;;;5071226;28;20040;-73
2023/12/20 04:58:51;;;;;;;24.20;3.42;;;7.70;99.90;;;;;;5072010;28;20462;-74
2023/12/20 05:01:16;;;;;;;;;;;7.60;99.90;;;;;;5071570;28;20041;-73
2023/12/20 05:03:42;;;;;;;23.00;3.72;;;7.90;99.90;;;;;;5071238;28;19931;-74
2023/12/20 05:06:08;;;;;;;23.48;4.13;;;7.70;99.90;;;;;;5071624;28;20048;-74
2023/12/20 05:08:33;;;;;;;24.98;4.13;;;7.60;99.90;;;;;;5071712;28;20037;-74
2023/12/20 05:10:59;;;;;;;20.33;3.70;;;7.70;99.90;;;;;;5070526;28;20045;-74
2023/12/20 05:13:25;;;;;;;21.17;3.92;;;7.70;99.90;;;;;;5071543;28;20044;-75
2023/12/20 05:15:50;;;;;;;12.38;3.20;;;7.70;99.90;;;;;;5071920;28;20098;-78
2023/12/20 05:18:16;;;;;;;;;;;7.70;99.90;;;;;;5070373;28;20052;-75
2023/12/20 05:20:41;;;;;;;19.95;3.67;;;7.70;99.90;;;;;;5071265;28;20284;-75
2023/12/20 05:23:07;;;;;;;24.35;4.85;;;7.70;99.90;;;;;;5069630;28;20121;-75
2023/12/20 05:25:33;;;;;;;21.25;3.42;;;7.70;99.90;;;;;;5070594;28;20129;-75
2023/12/20 05:27:59;;;;;;;25.70;4.15;;;7.80;99.90;;;;;;5071179;28;20135;-75
2023/12/20 05:30:24;;;;;;;18.73;3.72;;;7.80;99.90;;;;;;5071375;28;20037;-75
2023/12/20 05:32:50;;;;;;;;;;;7.80;99.90;;;;;;5070748;28;20606;-75
2023/12/20 05:35:15;;;;;;;22.48;4.00;;;7.70;99.90;;;;;;5071392;28;19923;-74
2023/12/20 05:37:41;;;;;;;25.75;4.07;;;7.70;99.90;;;;;;5069940;28;20040;-74
2023/12/20 05:40:10;;;;;;;21.30;4.05;;;7.70;99.90;;;;;;5071295;28;20369;-74
2023/12/20 05:42:37;;;;;;;23.42;4.25;;;7.80;99.90;;;;;;5070685;28;20060;-74
2023/12/20 05:45:05;;;;;;;22.65;4.57;;;8.00;99.90;;;;;;5070585;28;20044;-75
2023/12/20 05:47:31;;;;;;;17.20;3.90;;;7.80;99.90;;;;;;5071130;28;20056;-74
2023/12/20 05:49:56;;;;;;;14.52;3.45;;;7.80;99.90;;;;;;5071059;28;20431;-75
2023/12/20 05:52:22;;;;;;;19.17;3.40;;;8.30;99.90;;;;;;5069858;28;20068;-77
2023/12/20 05:54:48;;;;;;;21.98;4.05;;;7.80;99.90;;;;;;5071596;28;20093;-78
2023/12/20 05:57:14;;;;;;;21.88;5.18;;;7.80;99.90;;;;;;5071274;28;20048;-73
2023/12/20 05:59:39;;;;;;;;;;;7.80;99.90;;;;;;5071136;28;20496;-75
2023/12/20 06:02:05;;;;;;;17.20;3.95;;;7.90;99.90;;;;;;5070320;28;20376;-79
2023/12/20 06:04:31;;;;;;;20.45;3.67;;;8.00;99.90;;;;;;5071067;28;20056;-75
2023/12/20 06:06:56;;;;;;;17.48;3.55;;;7.90;99.90;;;;;;5070460;28;20100;-74
2023/12/20 06:09:22;;;;;;;16.98;3.38;;;7.90;99.90;;;;;;5070909;28;20539;-80
2023/12/20 06:11:47;;;;;;;18.48;3.88;;;8.40;99.90;;;;;;5100446;28;20043;-72
2023/12/20 06:14:16;;;;;;;;;;;7.90;99.90;;;;;;5069859;28;20080;-78
2023/12/20 06:16:41;;;;;;;22.90;4.35;;;7.90;99.90;;;;;;5070860;28;19924;-80
2023/12/20 06:19:07;;;;;;;20.77;4.47;;;7.90;99.90;;;;;;5070572;28;20175;-75
2023/12/20 06:21:32;;;;;;;17.70;3.35;;;7.90;99.90;;;;;;5069924;28;20045;-76
2023/12/20 06:23:59;;;;;;;;;;;7.90;99.90;;;;;;5071134;28;20063;-74
2023/12/20 06:26:24;;;;;;;24.20;3.83;;;7.90;99.90;;;;;;5071429;28;19916;-78
2023/12/20 06:28:50;;;;;;;;;;;8.30;99.90;;;;;;5070580;28;20572;-76
2023/12/20 06:31:16;;;;;;;16.98;3.83;;;7.90;99.90;;;;;;5069326;28;20312;-77
2023/12/20 06:33:42;;;;;;;22.52;4.57;;;7.90;99.90;;;;;;5069786;28;20032;-74
2023/12/20 06:36:11;;;;;;;18.75;3.63;;;8.00;99.90;;;;;;5069048;28;20044;-74
2023/12/20 06:38:37;;;;;;;23.83;5.25;;;8.00;99.90;;;;;;5070495;28;20052;-73
2023/12/20 06:41:03;;;;;;;21.60;4.50;;;8.00;99.90;;;;;;5069101;28;20056;-75
2023/12/20 06:43:29;;;;;;;;;;;8.00;99.90;;;;;;5070040;28;20376;-73
2023/12/20 06:45:54;;;;;;;16.92;3.75;;;8.00;99.90;;;;;;5072838;28;19920;-74
2023/12/20 06:48:20;;;;;;;22.45;3.97;;;8.10;99.90;;;;;;5073344;28;20094;-74
2023/12/20 06:50:46;;;;;;;24.02;4.28;;;8.00;99.90;;;;;;5071770;28;20500;-73
2023/12/20 06:53:11;;;;;;;22.05;4.70;;;8.00;99.90;;;;;;5073273;28;20124;-74
2023/12/20 06:55:37;;;;;;;15.43;4.00;;;7.90;99.90;;;;;;5073592;28;20098;-75
2023/12/20 06:58:04;;;;;;;18.15;4.07;;;7.90;99.90;;;;;;5071887;28;20052;-74
2023/12/20 07:00:30;;;;;;;18.50;4.00;;;7.90;99.90;;;;;;5072052;28;20445;-75
2023/12/20 07:02:58;;;;;;;17.27;3.88;;;8.20;99.90;;;;;;5069950;28;20517;-75
2023/12/20 07:05:24;;;;;;;19.55;4.22;;;7.80;99.90;;;;;;5070518;28;20036;-75
2023/12/20 07:07:50;;;;;;;20.88;5.28;;;7.80;99.90;;;;;;5068983;28;20071;-74
2023/12/20 07:10:15;;;;;;;24.10;4.22;;;8.20;99.90;;;;;;5068863;28;20385;-74
2023/12/20 07:12:41;;;;;;;25.02;4.13;;;7.90;99.90;;;;;;5072774;28;20044;-76
2023/12/20 07:15:07;;;;;;;18.95;4.32;;;7.80;99.90;;;;;;5071721;28;20049;-75
2023/12/20 07:17:33;;;;;;;21.45;4.53;;;7.70;99.90;;;;;;5071403;28;20083;-73
2023/12/20 07:20:03;;;;;;;19.40;4.35;;;7.70;99.90;;;;;;5073664;28;20044;-75
2023/12/20 07:22:33;;;;;;;15.73;3.45;;;7.70;99.90;;;;;;5073858;28;20053;-74
2023/12/20 07:24:59;;;;;;;23.27;4.57;;;7.70;99.90;;;;;;5072956;28;20043;-75
2023/12/20 07:27:26;;;;;;;25.58;4.85;;;8.30;99.90;;;;;;5073691;28;20049;-74
2023/12/20 07:29:54;;;;;;;24.50;4.93;;;7.80;99.90;;;;;;5073383;28;20048;-75
2023/12/20 07:32:20;;;;;;;16.15;4.53;;;7.90;99.90;;;;;;5072560;28;20055;-74
2023/12/20 07:34:45;;;;;;;21.17;4.50;;;7.90;99.90;;;;;;5073326;28;20048;-74
2023/12/20 07:37:11;;;;;;;12.05;3.38;;;7.90;99.90;;;;;;5072751;28;20049;-74
2023/12/20 07:39:41;;;;;;;18.05;3.60;;;8.00;99.90;;;;;;5073315;28;20098;-75
2023/12/20 07:42:09;;;;;;;21.55;4.10;;;7.90;99.90;;;;;;5072678;28;20083;-73
2023/12/20 07:44:38;;;;;;;21.85;4.45;;;7.90;99.90;;;;;;5072847;28;20123;-74
2023/12/20 07:47:04;;;;;;;20.02;4.22;;;8.20;99.90;;;;;;5072631;28;20131;-73
2023/12/20 07:49:30;;;;;;;18.50;3.78;;;7.90;99.90;;;;;;5073217;28;20127;-72
2023/12/20 07:51:56;;;;;;;11.25;2.45;;;7.90;99.90;;;;;;5071515;28;20037;-73
2023/12/20 07:54:22;;;;;;;8.63;2.55;;;7.90;99.90;;;;;;5072489;28;20105;-73
2023/12/20 07:56:48;;;;;;;7.57;1.75;;;8.00;99.90;;;;;;5073254;28;20472;-73
2023/12/20 07:59:14;;;;;;;8.95;1.73;;;7.70;99.90;;;;;;5072000;28;20131;-74
2023/12/20 08:01:40;;;;;;;12.05;2.50;;;7.60;99.90;;;;;;5072835;28;20128;-74
2023/12/20 08:04:06;;;;;;;17.88;3.65;;;7.60;99.90;;;;;;5072894;28;20060;-75
2023/12/20 08:06:34;;;;;;;20.08;4.22;;;7.60;99.90;;;;;;5072269;28;20044;-74
2023/12/20 08:09:02;;;;;;;16.65;3.10;;;7.50;99.90;;;;;;5072781;28;20064;-74
2023/12/20 08:11:29;;;;;;;19.23;4.28;;;7.60;99.90;;;;;;5072789;28;20132;-74
2023/12/20 08:13:54;;;;;;;17.02;3.83;;;7.60;99.90;;;;;;5071786;28;20044;-74
2023/12/20 08:16:20;;;;;;;30.27;4.13;;;7.60;99.90;;;;;;5073612;28;20360;-74
2023/12/20 08:18:47;;;;;;;;;;;7.70;99.90;;;;;;5073076;28;20086;-72
2023/12/20 08:21:12;;;;;;;21.70;3.97;;;7.70;99.90;;;;;;5071520;28;19931;-72
2023/12/20 08:23:38;;;;;;;24.85;3.88;;;7.70;99.90;;;;;;5072429;28;20048;-71
2023/12/20 08:26:05;;;;;;;19.17;4.38;;;7.80;99.90;;;;;;5072097;28;20055;-72
2023/12/20 08:28:31;;;;;;;23.65;4.18;;;7.80;99.90;;;;;;5071963;28;20456;-73
2023/12/20 08:30:57;;;;;;;25.55;5.30;;;7.90;99.90;;;;;;5072905;28;20066;-73
2023/12/20 08:33:22;;;;;;;20.52;4.18;;;7.90;99.90;;;;;;5072134;28;20083;-73
2023/12/20 08:35:48;;;;;;;21.55;4.05;;;7.90;99.90;;;;;;5071782;28;20037;-74
2023/12/20 08:38:14;;;;;;;16.50;3.90;;;7.90;99.90;;;;;;5071908;28;20507;-74
2023/12/20 08:40:42;;;;;;;18.35;4.00;;;8.00;99.90;;;;;;5071675;28;20045;-73
2023/12/20 08:43:08;;;;;;;18.92;4.82;;;7.90;99.90;;;;;;5071009;28;20094;-73
2023/12/20 08:45:34;;;;;;;18.67;4.40;;;8.00;99.90;;;;;;5071961;28;20048;-73
2023/12/20 08:48:00;;;;;;;21.52;3.75;;;8.20;99.90;;;;;;5070521;28;20040;-73
2023/12/20 08:50:25;;;;;;;6.00;1.80;;;8.30;99.90;;;;;;5073063;28;20028;-74
2023/12/20 08:52:51;;;;;;;8.80;2.72;;;8.00;99.90;;;;;;5105912;28;20054;-73
2023/12/20 08:55:18;;;;;;;8.95;2.58;;;7.80;99.90;;;;;;5071147;28;20128;-73
2023/12/20 08:57:43;;;;;;;9.38;2.00;;;7.60;99.90;;;;;;5072178;28;20076;-73
2023/12/20 09:00:10;;;;;;;12.23;2.88;;;7.40;99.90;;;;;;5070927;28;20470;-74
2023/12/20 09:02:36;;;;;;;11.00;2.30;;;7.20;99.90;;;;;;5070566;28;20047;-73
2023/12/20 09:05:02;;;;;;;7.82;1.77;;;7.10;99.90;;;;;;5071626;28;20131;-73
2023/12/20 09:07:30;;;;;;;8.93;1.92;;;6.90;99.90;;;;;;5071290;28;20105;-75
2023/12/20 09:09:56;;;;;;;6.85;1.77;;;6.90;99.90;;;;;;5069847;28;20157;-75
2023/12/20 09:12:22;;;;;;;9.82;2.10;;;6.90;99.90;;;;;;5070619;28;20036;-76
2023/12/20 09:14:49;;;;;;;11.52;2.20;;;6.80;99.90;;;;;;5070928;28;20044;-75
2023/12/20 09:17:16;;;;;;;13.60;1.75;;;6.70;99.90;;;;;;5067937;28;20109;-74
2023/12/20 09:19:43;;;;;;;10.68;1.90;;;6.90;99.90;;;;;;5070972;28;20045;-75
2023/12/20 09:22:09;;;;;;;10.63;1.65;;;6.70;99.90;;;;;;5070710;28;20049;-74
2023/12/20 09:24:35;;;;;;;12.75;2.00;;;6.70;99.90;;;;;;5070281;28;20086;-74
2023/12/20 09:27:01;;;;;;;11.38;2.03;;;6.80;99.90;;;;;;5069736;28;20519;-74
2023/12/20 09:29:26;;;;;;;14.68;2.42;;;6.80;99.90;;;;;;5071053;28;20117;-74
2023/12/20 09:31:52;;;;;;;6.57;1.60;;;6.80;99.90;;;;;;5070268;28;20049;-73
2023/12/20 09:34:18;;;;;;;10.30;2.63;;;6.90;99.90;;;;;;5070275;28;20055;-72
2023/12/20 09:36:47;;;;;;;7.78;2.13;;;7.00;99.90;;;;;;5070311;28;20040;-73
2023/12/20 09:39:23;;;;;;;8.80;2.08;;;7.00;99.90;;;;;;5070692;28;20044;-73
2023/12/20 09:42:02;;;;;;;11.77;2.00;;;8.10;99.90;;;;;;5067280;28;20045;-72
2023/12/20 09:44:28;;;;;;;7.10;1.55;;;7.00;99.90;;;;;;5069687;28;20036;-72
2023/12/20 09:46:55;;;;;;;15.38;2.33;;;7.00;99.90;;;;;;5070870;28;20041;-72
2023/12/20 09:49:22;;;;;;;11.70;2.40;;;7.30;99.90;;;;;;5070468;28;20052;-72
2023/12/20 09:51:48;;;;;;;7.82;1.80;;;6.90;99.90;;;;;;5069873;28;20067;-72
2023/12/20 09:54:18;;;;;;;12.32;1.88;;;6.90;99.90;;;;;;5070595;28;20497;-73
2023/12/20 09:56:44;;;;;;;7.40;2.08;;;7.00;99.90;;;;;;5070509;28;20044;-73
2023/12/20 09:59:10;;;;;;;7.47;1.88;;;6.80;99.90;;;;;;5069568;28;20052;-72
2023/12/20 10:01:39;;;;;;;9.57;2.22;;;6.90;99.90;;;;;;5070337;28;20040;-73
2023/12/20 10:04:08;;;;;;;9.80;1.95;;;7.40;99.90;;;;;;5070059;28;20086;-73
2023/12/20 10:06:35;;;;;;;12.57;2.05;;;8.00;99.90;;;;;;5065836;28;20380;-74
2023/12/20 10:09:01;;;;;;;13.77;2.15;;;8.40;99.90;;;;;;5070270;28;20048;-75
2023/12/20 10:11:28;;;;;;;11.38;2.25;;;8.40;99.90;;;;;;5070615;28;20033;-74
2023/12/20 10:14:00;;;;;;;14.38;2.30;;;8.50;99.90;;;;;;5069888;28;20037;-75
2023/12/20 10:16:27;;;;;;;10.80;2.40;;;8.60;99.90;;;;;;5070486;28;20040;-75
2023/12/20 10:18:53;;;;;;;15.88;2.58;;;8.80;99.90;;;;;;5071471;28;20051;-75
2023/12/20 10:21:19;;;;;;;9.73;1.92;;;9.10;99.90;;;;;;5073172;28;20472;-75
2023/12/20 10:23:45;;;;;;;13.68;2.60;;;8.80;99.90;;;;;;5074070;28;20040;-75
2023/12/20 10:26:23;;;;;;;9.27;3.00;;;9.10;99.90;;;;;;5073174;28;20391;-75
2023/12/20 10:28:54;;;;;;;10.68;2.33;;;8.70;99.90;;;;;;5074259;28;20040;-75
2023/12/20 10:31:42;;;;;;;11.85;2.50;;;8.60;99.90;;;;;;5074066;28;20511;-75
2023/12/20 10:34:08;;;;;;;11.38;2.75;;;8.50;99.90;;;;;;5073097;28;20391;-73
2023/12/20 10:36:36;;;;;;;13.63;2.20;;;8.30;99.90;;;;;;5074574;28;20048;-72
2023/12/20 10:39:02;;;;;;;12.02;2.22;;;8.30;99.90;;;;;;5074128;28;20057;-73
2023/12/20 10:41:30;;;;;;;10.68;1.90;;;8.20;99.90;;;;;;5073156;28;20063;-73
2023/12/20 10:44:00;;;;;;;8.40;1.90;;;8.30;99.90;;;;;;5074209;28;20044;-73
2023/12/20 10:46:29;;;;;;;8.45;2.22;;;8.30;99.90;;;;;;5074330;28;20084;-73
2023/12/20 10:48:57;;;;;;;11.75;3.10;;;8.20;99.90;;;;;;5071901;28;20045;-75
2023/12/20 10:51:26;;;;;;;10.48;4.20;;;8.50;99.90;;;;;;5073284;28;20172;-75
2023/12/20 10:53:52;;;;;;;10.20;2.30;;;8.10;99.90;;;;;;5073518;28;20798;-73
2023/12/20 10:56:19;;;;;;;8.43;1.90;;;8.10;99.90;;;;;;5071962;28;20117;-74
2023/12/20 10:58:49;;;;;;;15.65;3.28;;;8.20;99.90;;;;;;5073690;28;20048;-74
2023/12/20 11:01:18;;;;;;;15.25;2.67;;;8.20;99.90;;;;;;5072641;28;20090;-73
2023/12/20 11:03:52;;;;;;;12.90;2.90;;;8.80;99.90;;;;;;5074652;28;20044;-74
2023/12/20 11:06:51;;;;;;;13.25;4.10;;;8.60;99.90;;;;;;5072878;28;20070;-73
2023/12/20 11:09:29;;;;;;;14.77;3.63;;;9.00;99.90;;;;;;5072379;28;20044;-73
2023/12/20 11:12:13;;;;;;;11.77;2.35;;;9.50;99.90;;;;;;5073357;28;20067;-73
2023/12/20 11:14:50;;;;;;;14.60;2.45;;;10.80;99.90;;;;;;5073732;28;20072;-74
2023/12/20 11:17:17;;;;;;;12.82;2.90;;;11.40;99.90;;;;;;5072507;28;20067;-74
2023/12/20 11:19:52;;;;;;;10.55;2.65;;;12.00;99.90;;;;;;5073075;28;20049;-74
2023/12/20 11:22:20;;;;;;;10.32;3.42;;;12.50;99.90;;;;;;5072173;28;20056;-75
2023/12/20 11:24:47;;;;;;;12.30;2.80;;;12.30;99.90;;;;;;5072933;28;20119;-74
2023/12/20 11:27:14;;;;;;;10.18;2.38;;;11.90;99.90;;;;;;5072965;28;20162;-75
2023/12/20 11:29:40;;;;;;;9.80;2.22;;;11.40;99.90;;;;;;5072392;28;20093;-75
2023/12/20 11:32:29;;;;;;;12.13;2.38;;;10.90;99.90;;;;;;5072256;28;20102;-75
2023/12/20 11:34:59;;;;;;;10.35;2.47;;;10.50;99.90;;;;;;5072898;28;20039;-75
2023/12/20 11:37:34;;;;;;;22.25;9.77;;;10.10;99.90;;;;;;5072667;28;20037;-74
2023/12/20 11:40:02;;;;;;;9.23;2.73;;;10.20;99.90;;;;;;5072906;28;20373;-74
2023/12/20 11:42:28;;;;;;;14.05;4.15;;;9.60;99.90;;;;;;5072589;28;20109;-74
2023/12/20 11:44:53;;;;;;;11.32;3.65;;;9.60;99.90;;;;;;5072512;28;20131;-73
2023/12/20 11:47:19;;;;;;;16.85;4.70;;;9.30;99.90;;;;;;5073859;28;20055;-74
2023/12/20 11:49:48;;;;;;;15.68;4.57;;;9.50;99.90;;;;;;5073388;28;20049;-74
2023/12/20 11:52:14;;;;;;;16.17;4.35;;;9.50;99.90;;;;;;5072091;28;20051;-74
2023/12/20 11:54:39;;;;;;;12.38;3.80;;;9.10;99.90;;;;;;5072741;28;20044;-73
2023/12/20 11:57:05;;;;;;;16.08;4.68;;;9.00;99.90;;;;;;5072841;28;20076;-74
2023/12/20 11:59:31;;;;;;;17.50;3.60;;;9.30;99.90;;;;;;5072195;28;20048;-74
2023/12/20 12:02:00;;;;;;;14.48;3.30;;;8.70;99.90;;;;;;5072750;28;20083;-74
2023/12/20 12:04:26;;;;;;;17.30;3.10;;;8.60;99.90;;;;;;5072618;28;20086;-73
2023/12/20 12:06:52;;;;;;;13.80;2.60;;;8.50;99.90;;;;;;5073267;28;20140;-72
2023/12/20 12:09:20;;;;;;;13.70;2.30;;;8.40;99.90;;;;;;5072088;28;20040;-72
2023/12/20 12:11:46;;;;;;;11.73;3.50;;;8.40;99.90;;;;;;5071853;28;20036;-73
2023/12/20 12:14:12;;;;;;;11.95;2.78;;;8.50;99.90;;;;;;5072523;28;20547;-72
2023/12/20 12:16:38;;;;;;;17.85;3.10;;;8.40;99.90;;;;;;5072480;28;20055;-73
2023/12/20 12:19:04;;;;;;;14.63;3.50;;;8.30;99.90;;;;;;5071748;28;20047;-73
2023/12/20 12:21:29;;;;;;;17.45;3.78;;;8.20;99.90;;;;;;5072317;28;20048;-73
2023/12/20 12:24:26;;;;;;;13.98;2.83;;;8.10;99.90;;;;;;5072775;28;20044;-73
2023/12/20 12:26:51;;;;;;;11.20;2.70;;;8.10;99.90;;;;;;5071360;28;20056;-73
2023/12/20 12:29:17;;;;;;;13.93;2.72;;;8.00;99.90;;;;;;5072122;28;20051;-72
2023/12/20 12:31:43;;;;;;;14.65;2.13;;;8.00;99.90;;;;;;5073606;28;20051;-73
2023/12/20 12:34:09;;;;;;;8.50;1.80;;;7.80;99.90;;;;;;5071677;28;20040;-73
2023/12/20 12:36:34;;;;;;;10.52;3.40;;;7.80;99.90;;;;;;5073616;28;20049;-73
2023/12/20 12:39:04;;;;;;;10.45;3.38;;;7.80;99.90;;;;;;5072279;28;20166;-72
2023/12/20 12:41:30;;;;;;;10.00;2.08;;;7.60;99.90;;;;;;5070408;28;20067;-73
2023/12/20 12:43:56;;;;;;;10.50;2.45;;;7.60;99.90;;;;;;5072572;28;20081;-73
2023/12/20 12:46:21;;;;;;;10.38;2.75;;;7.70;99.90;;;;;;5073151;28;20156;-73
2023/12/20 12:48:47;;;;;;;9.30;3.10;;;7.60;99.90;;;;;;5072500;28;20044;-73
2023/12/20 12:51:13;;;;;;;11.07;2.78;;;7.50;99.90;;;;;;5071317;28;20476;-73
2023/12/20 12:53:39;;;;;;;15.10;3.95;;;7.50;99.90;;;;;;5071732;28;20053;-73